sensor_id;sensor_type;location;lat;lon;timestamp;temperature;humidity
8914;DHT22;4492;48.736;9.092;2023-06-01T00:01:59;11.70;95.50
8914;DHT22;4492;48.736;9.092;2023-06-01T00:04:25;11.70;96.10
8914;DHT22;4492;48.736;9.092;2023-06-01T00:06:50;11.60;96.70
8914;DHT22;4492;48.736;9.092;2023-06-01T00:09:16;11.50;96.70
8914;DHT22;4492;48.736;9.092;2023-06-01T00:11:42;11.40;96.90
8914;DHT22;4492;48.736;9.092;2023-06-01T00:14:08;11.40;97.10
8914;DHT22;4492;48.736;9.092;2023-06-01T00:16:34;11.30;97.20
8914;DHT22;4492;48.736;9.092;2023-06-01T00:19:00;11.30;97.10
8914;DHT22;4492;48.736;9.092;2023-06-01T00:21:29;11.30;96.90
8914;DHT22;4492;48.736;9.092;2023-06-01T00:23:57;11.30;96.80
8914;DHT22;4492;48.736;9.092;2023-06-01T00:26:23;11.30;96.70
8914;DHT22;4492;48.736;9.092;2023-06-01T00:28:48;11.40;98.00
8914;DHT22;4492;48.736;9.092;2023-06-01T00:31:14;11.40;97.70
8914;DHT22;4492;48.736;9.092;2023-06-01T00:33:40;11.40;97.60
8914;DHT22;4492;48.736;9.092;2023-06-01T00:36:05;11.40;98.80
8914;DHT22;4492;48.736;9.092;2023-06-01T00:38:31;11.40;98.90
8914;DHT22;4492;48.736;9.092;2023-06-01T00:40:56;11.30;98.80
8914;DHT22;4492;48.736;9.092;2023-06-01T00:43:22;11.20;99.00
8914;DHT22;4492;48.736;9.092;2023-06-01T00:45:48;11.10;99.10
8914;DHT22;4492;48.736;9.092;2023-06-01T00:48:14;11.10;99.10
8914;DHT22;4492;48.736;9.092;2023-06-01T00:50:42;11.10;98.90
8914;DHT22;4492;48.736;9.092;2023-06-01T00:53:13;11.10;99.80
8914;DHT22;4492;48.736;9.092;2023-06-01T00:55:41;11.20;99.90
8914;DHT22;4492;48.736;9.092;2023-06-01T00:58:06;11.20;99.90
8914;DHT22;4492;48.736;9.092;2023-06-01T01:00:32;11.20;99.90
8914;DHT22;4492;48.736;9.092;2023-06-01T01:02:58;11.20;99.50
8914;DHT22;4492;48.736;9.092;2023-06-01T01:05:26;11.10;99.70
8914;DHT22;4492;48.736;9.092;2023-06-01T01:07:57;11.10;99.90
8914;DHT22;4492;48.736;9.092;2023-06-01T01:13:44;11.00;99.90
8914;DHT22;4492;48.736;9.092;2023-06-01T01:21:21;11.10;99.90
8914;DHT22;4492;48.736;9.092;2023-06-01T01:24:31;11.00;99.90
8914;DHT22;4492;48.736;9.092;2023-06-01T01:27:10;10.90;99.90
8914;DHT22;4492;48.736;9.092;2023-06-01T01:29:40;10.80;99.90
8914;DHT22;4492;48.736;9.092;2023-06-01T01:32:07;10.80;99.90
8914;DHT22;4492;48.736;9.092;2023-06-01T01:34:34;10.80;99.90
8914;DHT22;4492;48.736;9.092;2023-06-01T01:37:01;10.90;99.90
8914;DHT22;4492;48.736;9.092;2023-06-01T01:39:27;10.80;99.90
8914;DHT22;4492;48.736;9.092;2023-06-01T01:41:53;10.70;99.90
8914;DHT22;4492;48.736;9.092;2023-06-01T01:44:18;10.60;99.90
8914;DHT22;4492;48.736;9.092;2023-06-01T01:46:55;10.60;99.90
8914;DHT22;4492;48.736;9.092;2023-06-01T01:49:43;10.50;99.90
8914;DHT22;4492;48.736;9.092;2023-06-01T01:52:16;10.50;99.90
8914;DHT22;4492;48.736;9.092;2023-06-01T01:54:45;10.40;99.90
8914;DHT22;4492;48.736;9.092;2023-06-01T01:57:13;10.40;99.90
8914;DHT22;4492;48.736;9.092;2023-06-01T01:59:40;10.40;99.90
8914;DHT22;4492;48.736;9.092;2023-06-01T02:02:07;10.30;99.90
8914;DHT22;4492;48.736;9.092;2023-06-01T02:04:32;10.30;99.90
8914;DHT22;4492;48.736;9.092;2023-06-01T02:07:03;10.30;99.90
8914;DHT22;4492;48.736;9.092;2023-06-01T02:09:29;10.30;99.90
8914;DHT22;4492;48.736;9.092;2023-06-01T02:11:54;10.20;99.90
8914;DHT22;4492;48.736;9.092;2023-06-01T02:14:20;10.10;99.90
8914;DHT22;4492;48.736;9.092;2023-06-01T02:16:45;10.10;99.90
8914;DHT22;4492;48.736;9.092;2023-06-01T02:19:11;10.00;99.90
8914;DHT22;4492;48.736;9.092;2023-06-01T02:21:37;10.00;99.90
8914;DHT22;4492;48.736;9.092;2023-06-01T02:24:03;10.00;99.90
8914;DHT22;4492;48.736;9.092;2023-06-01T02:26:31;9.90;99.90
8914;DHT22;4492;48.736;9.092;2023-06-01T02:28:57;9.90;99.90
8914;DHT22;4492;48.736;9.092;2023-06-01T02:31:23;9.90;99.90
8914;DHT22;4492;48.736;9.092;2023-06-01T02:33:49;9.90;99.90
8914;DHT22;4492;48.736;9.092;2023-06-01T02:36:15;9.90;99.90
8914;DHT22;4492;48.736;9.092;2023-06-01T02:38:42;9.80;99.90
8914;DHT22;4492;48.736;9.092;2023-06-01T02:41:08;9.80;99.90
8914;DHT22;4492;48.736;9.092;2023-06-01T02:43:36;9.80;99.90
8914;DHT22;4492;48.736;9.092;2023-06-01T02:46:02;9.80;99.90
8914;DHT22;4492;48.736;9.092;2023-06-01T02:48:28;9.70;99.90
8914;DHT22;4492;48.736;9.092;2023-06-01T02:50:54;9.70;99.90
8914;DHT22;4492;48.736;9.092;2023-06-01T02:53:20;9.70;99.90
8914;DHT22;4492;48.736;9.092;2023-06-01T02:55:46;9.60;99.90
8914;DHT22;4492;48.736;9.092;2023-06-01T02:58:12;9.60;99.90
8914;DHT22;4492;48.736;9.092;2023-06-01T03:00:44;9.50;99.90
8914;DHT22;4492;48.736;9.092;2023-06-01T03:03:11;9.50;99.90
8914;DHT22;4492;48.736;9.092;2023-06-01T03:05:37;9.40;99.90
8914;DHT22;4492;48.736;9.092;2023-06-01T03:08:03;9.40;99.90
8914;DHT22;4492;48.736;9.092;2023-06-01T03:10:31;9.40;99.90
8914;DHT22;4492;48.736;9.092;2023-06-01T03:12:56;9.30;99.90
8914;DHT22;4492;48.736;9.092;2023-06-01T03:15:22;9.30;99.90
8914;DHT22;4492;48.736;9.092;2023-06-01T03:17:47;9.30;99.90
8914;DHT22;4492;48.736;9.092;2023-06-01T03:20:13;9.20;99.90
8914;DHT22;4492;48.736;9.092;2023-06-01T03:22:42;9.20;99.90
8914;DHT22;4492;48.736;9.092;2023-06-01T03:25:08;9.20;99.90
8914;DHT22;4492;48.736;9.092;2023-06-01T03:27:34;9.20;99.90
8914;DHT22;4492;48.736;9.092;2023-06-01T03:30:00;9.20;99.90
8914;DHT22;4492;48.736;9.092;2023-06-01T03:32:26;9.20;99.90
8914;DHT22;4492;48.736;9.092;2023-06-01T03:34:52;9.20;99.90
8914;DHT22;4492;48.736;9.092;2023-06-01T03:37:17;9.20;99.90
8914;DHT22;4492;48.736;9.092;2023-06-01T03:39:43;9.20;99.90
8914;DHT22;4492;48.736;9.092;2023-06-01T03:42:09;9.20;99.90
8914;DHT22;4492;48.736;9.092;2023-06-01T03:44:34;9.20;99.90
8914;DHT22;4492;48.736;9.092;2023-06-01T03:47:00;9.30;99.90
8914;DHT22;4492;48.736;9.092;2023-06-01T03:49:26;9.40;99.90
8914;DHT22;4492;48.736;9.092;2023-06-01T03:51:51;9.50;99.90
8914;DHT22;4492;48.736;9.092;2023-06-01T03:54:17;9.60;99.90
8914;DHT22;4492;48.736;9.092;2023-06-01T03:56:42;9.80;99.90
8914;DHT22;4492;48.736;9.092;2023-06-01T03:59:08;9.80;99.90
8914;DHT22;4492;48.736;9.092;2023-06-01T04:01:35;9.90;99.90
8914;DHT22;4492;48.736;9.092;2023-06-01T04:04:01;9.90;99.90
8914;DHT22;4492;48.736;9.092;2023-06-01T04:06:29;9.90;99.90
8914;DHT22;4492;48.736;9.092;2023-06-01T04:08:55;9.90;99.90
8914;DHT22;4492;48.736;9.092;2023-06-01T04:11:23;9.90;99.90
8914;DHT22;4492;48.736;9.092;2023-06-01T04:13:49;10.00;99.90
8914;DHT22;4492;48.736;9.092;2023-06-01T04:16:15;9.90;99.90
8914;DHT22;4492;48.736;9.092;2023-06-01T04:18:41;10.00;99.90
8914;DHT22;4492;48.736;9.092;2023-06-01T04:21:07;10.00;99.90
8914;DHT22;4492;48.736;9.092;2023-06-01T04:23:34;10.10;99.90
8914;DHT22;4492;48.736;9.092;2023-06-01T04:26:00;10.10;99.90
8914;DHT22;4492;48.736;9.092;2023-06-01T04:28:29;10.20;99.90
8914;DHT22;4492;48.736;9.092;2023-06-01T04:30:55;10.30;99.90
8914;DHT22;4492;48.736;9.092;2023-06-01T04:33:21;10.30;99.90
8914;DHT22;4492;48.736;9.092;2023-06-01T04:35:48;10.40;99.90
8914;DHT22;4492;48.736;9.092;2023-06-01T04:38:13;10.50;99.90
8914;DHT22;4492;48.736;9.092;2023-06-01T04:40:43;10.60;99.90
8914;DHT22;4492;48.736;9.092;2023-06-01T04:43:10;10.70;99.90
8914;DHT22;4492;48.736;9.092;2023-06-01T04:45:37;10.70;99.90
8914;DHT22;4492;48.736;9.092;2023-06-01T04:48:04;10.80;99.90
8914;DHT22;4492;48.736;9.092;2023-06-01T04:50:34;10.90;99.90
8914;DHT22;4492;48.736;9.092;2023-06-01T04:53:00;11.10;99.90
8914;DHT22;4492;48.736;9.092;2023-06-01T04:55:26;11.20;99.90
8914;DHT22;4492;48.736;9.092;2023-06-01T04:57:52;11.40;99.90
8914;DHT22;4492;48.736;9.092;2023-06-01T05:00:18;11.50;99.90
8914;DHT22;4492;48.736;9.092;2023-06-01T05:02:45;11.60;99.90
8914;DHT22;4492;48.736;9.092;2023-06-01T05:05:13;11.70;99.90
8914;DHT22;4492;48.736;9.092;2023-06-01T05:07:40;11.90;99.90
8914;DHT22;4492;48.736;9.092;2023-06-01T05:10:08;12.10;99.90
8914;DHT22;4492;48.736;9.092;2023-06-01T05:12:34;12.20;99.90
8914;DHT22;4492;48.736;9.092;2023-06-01T05:15:01;12.40;99.90
8914;DHT22;4492;48.736;9.092;2023-06-01T05:17:27;12.50;99.90
8914;DHT22;4492;48.736;9.092;2023-06-01T05:19:52;12.60;99.90
8914;DHT22;4492;48.736;9.092;2023-06-01T05:22:18;12.80;99.90
8914;DHT22;4492;48.736;9.092;2023-06-01T05:24:44;12.90;99.90
8914;DHT22;4492;48.736;9.092;2023-06-01T05:27:09;13.00;99.90
8914;DHT22;4492;48.736;9.092;2023-06-01T05:29:35;13.10;99.90
8914;DHT22;4492;48.736;9.092;2023-06-01T05:32:00;13.30;99.90
8914;DHT22;4492;48.736;9.092;2023-06-01T05:34:27;13.50;99.90
8914;DHT22;4492;48.736;9.092;2023-06-01T05:36:52;13.70;99.90
8914;DHT22;4492;48.736;9.092;2023-06-01T05:39:18;13.80;99.90
8914;DHT22;4492;48.736;9.092;2023-06-01T05:41:43;14.00;99.90
8914;DHT22;4492;48.736;9.092;2023-06-01T05:44:09;14.10;99.90
8914;DHT22;4492;48.736;9.092;2023-06-01T05:46:35;14.30;99.90
8914;DHT22;4492;48.736;9.092;2023-06-01T05:49:00;14.50;99.90
8914;DHT22;4492;48.736;9.092;2023-06-01T05:51:26;14.60;99.90
8914;DHT22;4492;48.736;9.092;2023-06-01T05:53:51;14.80;99.90
8914;DHT22;4492;48.736;9.092;2023-06-01T05:56:17;15.00;98.70
8914;DHT22;4492;48.736;9.092;2023-06-01T05:58:43;15.10;97.80
8914;DHT22;4492;48.736;9.092;2023-06-01T06:01:09;15.30;97.00
8914;DHT22;4492;48.736;9.092;2023-06-01T06:03:35;15.40;96.30
8914;DHT22;4492;48.736;9.092;2023-06-01T06:06:02;15.60;96.00
8914;DHT22;4492;48.736;9.092;2023-06-01T06:08:27;15.80;95.40
8914;DHT22;4492;48.736;9.092;2023-06-01T06:10:53;15.90;95.30
8914;DHT22;4492;48.736;9.092;2023-06-01T06:13:19;16.10;94.40
8914;DHT22;4492;48.736;9.092;2023-06-01T06:15:44;16.20;93.80
8914;DHT22;4492;48.736;9.092;2023-06-01T06:18:10;16.30;93.40
8914;DHT22;4492;48.736;9.092;2023-06-01T06:20:35;16.40;92.80
8914;DHT22;4492;48.736;9.092;2023-06-01T06:23:01;16.60;92.30
8914;DHT22;4492;48.736;9.092;2023-06-01T06:25:26;16.70;92.00
8914;DHT22;4492;48.736;9.092;2023-06-01T06:27:52;16.80;92.20
8914;DHT22;4492;48.736;9.092;2023-06-01T06:30:18;16.90;92.30
8914;DHT22;4492;48.736;9.092;2023-06-01T06:32:43;17.10;92.20
8914;DHT22;4492;48.736;9.092;2023-06-01T06:35:09;17.10;92.00
8914;DHT22;4492;48.736;9.092;2023-06-01T06:37:41;17.20;91.80
8914;DHT22;4492;48.736;9.092;2023-06-01T06:40:10;17.30;92.30
8914;DHT22;4492;48.736;9.092;2023-06-01T06:42:35;17.40;90.90
8914;DHT22;4492;48.736;9.092;2023-06-01T06:45:01;17.50;91.00
8914;DHT22;4492;48.736;9.092;2023-06-01T06:47:27;17.50;91.20
8914;DHT22;4492;48.736;9.092;2023-06-01T06:49:53;17.60;91.50
8914;DHT22;4492;48.736;9.092;2023-06-01T06:52:19;17.70;92.20
8914;DHT22;4492;48.736;9.092;2023-06-01T06:54:44;17.90;91.50
8914;DHT22;4492;48.736;9.092;2023-06-01T06:57:10;18.10;91.10
8914;DHT22;4492;48.736;9.092;2023-06-01T06:59:37;18.20;90.50
8914;DHT22;4492;48.736;9.092;2023-06-01T07:02:03;18.30;90.40
8914;DHT22;4492;48.736;9.092;2023-06-01T07:04:29;18.50;90.00
8914;DHT22;4492;48.736;9.092;2023-06-01T07:06:55;18.50;89.40
8914;DHT22;4492;48.736;9.092;2023-06-01T07:09:20;18.70;88.80
8914;DHT22;4492;48.736;9.092;2023-06-01T07:11:46;18.80;89.50
8914;DHT22;4492;48.736;9.092;2023-06-01T07:14:16;19.00;89.10
8914;DHT22;4492;48.736;9.092;2023-06-01T07:16:41;19.00;89.40
8914;DHT22;4492;48.736;9.092;2023-06-01T07:19:08;19.10;87.70
8914;DHT22;4492;48.736;9.092;2023-06-01T07:21:33;19.30;88.00
8914;DHT22;4492;48.736;9.092;2023-06-01T07:23:59;19.40;87.20
8914;DHT22;4492;48.736;9.092;2023-06-01T07:26:24;19.60;87.70
8914;DHT22;4492;48.736;9.092;2023-06-01T07:28:55;19.80;86.30
8914;DHT22;4492;48.736;9.092;2023-06-01T07:31:22;19.90;86.30
8914;DHT22;4492;48.736;9.092;2023-06-01T07:33:47;20.00;84.20
8914;DHT22;4492;48.736;9.092;2023-06-01T07:36:13;20.10;83.80
8914;DHT22;4492;48.736;9.092;2023-06-01T07:38:39;20.10;83.00
8914;DHT22;4492;48.736;9.092;2023-06-01T07:41:05;20.10;83.40
8914;DHT22;4492;48.736;9.092;2023-06-01T07:43:31;20.20;82.60
8914;DHT22;4492;48.736;9.092;2023-06-01T07:45:57;20.20;82.40
8914;DHT22;4492;48.736;9.092;2023-06-01T07:48:22;20.20;82.60
8914;DHT22;4492;48.736;9.092;2023-06-01T07:50:48;20.20;82.30
8914;DHT22;4492;48.736;9.092;2023-06-01T07:53:14;20.30;81.50
8914;DHT22;4492;48.736;9.092;2023-06-01T07:55:39;20.40;82.50
8914;DHT22;4492;48.736;9.092;2023-06-01T07:58:05;20.30;80.90
8914;DHT22;4492;48.736;9.092;2023-06-01T08:00:31;20.20;81.30
8914;DHT22;4492;48.736;9.092;2023-06-01T08:02:56;20.20;82.00
8914;DHT22;4492;48.736;9.092;2023-06-01T08:05:24;20.30;81.70
8914;DHT22;4492;48.736;9.092;2023-06-01T08:07:50;20.30;81.30
8914;DHT22;4492;48.736;9.092;2023-06-01T08:10:15;20.40;82.20
8914;DHT22;4492;48.736;9.092;2023-06-01T08:12:41;20.50;81.70
8914;DHT22;4492;48.736;9.092;2023-06-01T08:15:08;20.70;80.20
8914;DHT22;4492;48.736;9.092;2023-06-01T08:17:35;20.70;81.60
8914;DHT22;4492;48.736;9.092;2023-06-01T08:20:01;20.80;79.30
8914;DHT22;4492;48.736;9.092;2023-06-01T08:22:33;20.90;80.50
8914;DHT22;4492;48.736;9.092;2023-06-01T08:24:59;21.10;80.30
8914;DHT22;4492;48.736;9.092;2023-06-01T08:27:24;21.20;79.20
8914;DHT22;4492;48.736;9.092;2023-06-01T08:29:50;21.30;79.60
8914;DHT22;4492;48.736;9.092;2023-06-01T08:32:16;21.50;78.20
8914;DHT22;4492;48.736;9.092;2023-06-01T08:34:44;21.50;78.00
8914;DHT22;4492;48.736;9.092;2023-06-01T08:37:10;21.50;76.40
8914;DHT22;4492;48.736;9.092;2023-06-01T08:39:35;21.50;77.30
8914;DHT22;4492;48.736;9.092;2023-06-01T08:42:14;21.40;77.70
8914;DHT22;4492;48.736;9.092;2023-06-01T08:44:41;21.40;77.70
8914;DHT22;4492;48.736;9.092;2023-06-01T08:47:07;21.60;77.50
8914;DHT22;4492;48.736;9.092;2023-06-01T08:49:35;21.70;75.40
8914;DHT22;4492;48.736;9.092;2023-06-01T08:52:04;21.80;76.80
8914;DHT22;4492;48.736;9.092;2023-06-01T08:54:30;21.80;76.80
8914;DHT22;4492;48.736;9.092;2023-06-01T08:56:59;22.00;75.40
8914;DHT22;4492;48.736;9.092;2023-06-01T08:59:25;22.00;76.50
8914;DHT22;4492;48.736;9.092;2023-06-01T09:01:53;22.00;76.60
8914;DHT22;4492;48.736;9.092;2023-06-01T09:04:18;22.10;74.50
8914;DHT22;4492;48.736;9.092;2023-06-01T09:06:45;22.20;74.80
8914;DHT22;4492;48.736;9.092;2023-06-01T09:09:12;22.40;74.00
8914;DHT22;4492;48.736;9.092;2023-06-01T09:11:38;22.40;74.80
8914;DHT22;4492;48.736;9.092;2023-06-01T09:14:22;22.40;74.20
8914;DHT22;4492;48.736;9.092;2023-06-01T09:16:48;22.30;73.20
8914;DHT22;4492;48.736;9.092;2023-06-01T09:19:14;22.20;73.20
8914;DHT22;4492;48.736;9.092;2023-06-01T09:21:57;22.30;74.40
8914;DHT22;4492;48.736;9.092;2023-06-01T09:24:23;22.30;74.20
8914;DHT22;4492;48.736;9.092;2023-06-01T09:26:49;22.40;75.60
8914;DHT22;4492;48.736;9.092;2023-06-01T09:29:15;22.60;73.00
8914;DHT22;4492;48.736;9.092;2023-06-01T09:31:42;22.70;72.70
8914;DHT22;4492;48.736;9.092;2023-06-01T09:34:11;22.70;73.10
8914;DHT22;4492;48.736;9.092;2023-06-01T09:36:38;22.70;72.80
8914;DHT22;4492;48.736;9.092;2023-06-01T09:39:14;22.80;73.10
8914;DHT22;4492;48.736;9.092;2023-06-01T09:41:54;23.00;72.60
8914;DHT22;4492;48.736;9.092;2023-06-01T09:49:30;23.30;70.70
8914;DHT22;4492;48.736;9.092;2023-06-01T09:54:34;23.40;69.50
8914;DHT22;4492;48.736;9.092;2023-06-01T09:57:02;23.40;70.80
8914;DHT22;4492;48.736;9.092;2023-06-01T09:59:29;23.50;68.20
8914;DHT22;4492;48.736;9.092;2023-06-01T10:01:58;23.50;69.00
8914;DHT22;4492;48.736;9.092;2023-06-01T10:04:27;23.60;66.40
8914;DHT22;4492;48.736;9.092;2023-06-01T10:06:55;23.60;66.60
8914;DHT22;4492;48.736;9.092;2023-06-01T10:09:23;23.50;68.70
8914;DHT22;4492;48.736;9.092;2023-06-01T10:11:51;23.50;67.40
8914;DHT22;4492;48.736;9.092;2023-06-01T10:14:19;23.50;64.40
8914;DHT22;4492;48.736;9.092;2023-06-01T10:16:44;23.60;65.20
8914;DHT22;4492;48.736;9.092;2023-06-01T10:19:11;23.60;66.10
8914;DHT22;4492;48.736;9.092;2023-06-01T10:21:37;23.60;64.00
8914;DHT22;4492;48.736;9.092;2023-06-01T10:24:06;23.70;63.80
8914;DHT22;4492;48.736;9.092;2023-06-01T10:26:38;23.80;63.30
8914;DHT22;4492;48.736;9.092;2023-06-01T10:29:07;23.80;63.10
8914;DHT22;4492;48.736;9.092;2023-06-01T10:31:42;23.90;59.90
8914;DHT22;4492;48.736;9.092;2023-06-01T10:34:09;23.80;59.10
8914;DHT22;4492;48.736;9.092;2023-06-01T10:39:33;23.80;60.20
8914;DHT22;4492;48.736;9.092;2023-06-01T10:44:45;24.00;62.40
8914;DHT22;4492;48.736;9.092;2023-06-01T10:52:34;24.20;60.70
8914;DHT22;4492;48.736;9.092;2023-06-01T11:00:42;24.10;63.30
8914;DHT22;4492;48.736;9.092;2023-06-01T11:03:09;24.20;59.60
8914;DHT22;4492;48.736;9.092;2023-06-01T11:13:18;24.40;58.40
8914;DHT22;4492;48.736;9.092;2023-06-01T11:18:44;24.50;57.20
8914;DHT22;4492;48.736;9.092;2023-06-01T11:21:16;24.50;57.50
8914;DHT22;4492;48.736;9.092;2023-06-01T11:23:42;24.40;58.30
8914;DHT22;4492;48.736;9.092;2023-06-01T11:26:08;24.60;55.90
8914;DHT22;4492;48.736;9.092;2023-06-01T11:28:37;24.70;55.90
8914;DHT22;4492;48.736;9.092;2023-06-01T11:31:03;24.70;56.10
8914;DHT22;4492;48.736;9.092;2023-06-01T11:33:35;24.60;55.40
8914;DHT22;4492;48.736;9.092;2023-06-01T11:36:03;24.70;55.20
8914;DHT22;4492;48.736;9.092;2023-06-01T11:38:42;24.70;54.30
8914;DHT22;4492;48.736;9.092;2023-06-01T11:41:09;24.70;54.40
8914;DHT22;4492;48.736;9.092;2023-06-01T11:43:35;24.80;56.80
8914;DHT22;4492;48.736;9.092;2023-06-01T11:46:06;24.90;55.50
8914;DHT22;4492;48.736;9.092;2023-06-01T11:48:32;25.10;56.30
8914;DHT22;4492;48.736;9.092;2023-06-01T11:51:00;25.20;55.40
8914;DHT22;4492;48.736;9.092;2023-06-01T11:53:27;25.40;52.60
8914;DHT22;4492;48.736;9.092;2023-06-01T11:55:54;25.50;51.20
8914;DHT22;4492;48.736;9.092;2023-06-01T11:58:24;25.50;53.40
8914;DHT22;4492;48.736;9.092;2023-06-01T12:00:54;25.50;52.70
8914;DHT22;4492;48.736;9.092;2023-06-01T12:03:20;25.50;52.50
8914;DHT22;4492;48.736;9.092;2023-06-01T12:05:46;25.60;52.00
8914;DHT22;4492;48.736;9.092;2023-06-01T12:08:17;25.70;52.20
8914;DHT22;4492;48.736;9.092;2023-06-01T12:10:48;25.80;52.40
8914;DHT22;4492;48.736;9.092;2023-06-01T12:13:15;25.80;51.40
8914;DHT22;4492;48.736;9.092;2023-06-01T12:15:41;26.00;51.50
8914;DHT22;4492;48.736;9.092;2023-06-01T12:18:07;25.90;51.20
8914;DHT22;4492;48.736;9.092;2023-06-01T12:23:01;25.70;50.90
8914;DHT22;4492;48.736;9.092;2023-06-01T12:25:29;25.60;50.20
8914;DHT22;4492;48.736;9.092;2023-06-01T12:28:04;25.60;51.40
8914;DHT22;4492;48.736;9.092;2023-06-01T12:30:30;25.50;51.60
8914;DHT22;4492;48.736;9.092;2023-06-01T12:32:56;25.70;52.00
8914;DHT22;4492;48.736;9.092;2023-06-01T12:35:21;25.90;51.30
8914;DHT22;4492;48.736;9.092;2023-06-01T12:38:09;26.00;52.20
8914;DHT22;4492;48.736;9.092;2023-06-01T12:40:38;26.20;51.80
8914;DHT22;4492;48.736;9.092;2023-06-01T12:43:04;26.20;52.20
8914;DHT22;4492;48.736;9.092;2023-06-01T12:45:39;26.00;52.70
8914;DHT22;4492;48.736;9.092;2023-06-01T12:48:05;25.90;53.30
8914;DHT22;4492;48.736;9.092;2023-06-01T12:50:31;26.00;52.90
8914;DHT22;4492;48.736;9.092;2023-06-01T12:52:57;25.90;52.70
8914;DHT22;4492;48.736;9.092;2023-06-01T12:55:23;25.80;53.10
8914;DHT22;4492;48.736;9.092;2023-06-01T12:57:55;25.90;51.90
8914;DHT22;4492;48.736;9.092;2023-06-01T13:00:21;26.00;52.30
8914;DHT22;4492;48.736;9.092;2023-06-01T13:02:47;26.20;53.70
8914;DHT22;4492;48.736;9.092;2023-06-01T13:05:15;26.40;52.40
8914;DHT22;4492;48.736;9.092;2023-06-01T13:07:42;26.60;52.60
8914;DHT22;4492;48.736;9.092;2023-06-01T13:10:12;26.60;50.50
8914;DHT22;4492;48.736;9.092;2023-06-01T13:12:38;26.60;50.60
8914;DHT22;4492;48.736;9.092;2023-06-01T13:15:06;26.70;49.40
8914;DHT22;4492;48.736;9.092;2023-06-01T13:17:32;26.70;49.40
8914;DHT22;4492;48.736;9.092;2023-06-01T13:19:57;27.00;49.30
8914;DHT22;4492;48.736;9.092;2023-06-01T13:22:23;27.10;51.80
8914;DHT22;4492;48.736;9.092;2023-06-01T13:24:49;27.10;52.20
8914;DHT22;4492;48.736;9.092;2023-06-01T13:27:14;27.00;53.10
8914;DHT22;4492;48.736;9.092;2023-06-01T13:29:40;27.00;53.40
8914;DHT22;4492;48.736;9.092;2023-06-01T13:32:05;26.80;52.00
8914;DHT22;4492;48.736;9.092;2023-06-01T13:34:31;26.70;53.10
8914;DHT22;4492;48.736;9.092;2023-06-01T13:36:57;26.70;52.60
8914;DHT22;4492;48.736;9.092;2023-06-01T13:39:23;26.60;53.50
8914;DHT22;4492;48.736;9.092;2023-06-01T13:41:48;26.60;54.60
8914;DHT22;4492;48.736;9.092;2023-06-01T13:44:14;26.50;55.00
8914;DHT22;4492;48.736;9.092;2023-06-01T13:46:40;26.50;54.50
8914;DHT22;4492;48.736;9.092;2023-06-01T13:49:05;26.50;54.80
8914;DHT22;4492;48.736;9.092;2023-06-01T13:51:32;26.50;55.50
8914;DHT22;4492;48.736;9.092;2023-06-01T13:53:58;26.40;54.20
8914;DHT22;4492;48.736;9.092;2023-06-01T13:56:24;26.70;54.00
8914;DHT22;4492;48.736;9.092;2023-06-01T13:58:50;26.60;53.80
8914;DHT22;4492;48.736;9.092;2023-06-01T14:01:16;26.60;53.50
8914;DHT22;4492;48.736;9.092;2023-06-01T14:03:41;26.80;53.20
8914;DHT22;4492;48.736;9.092;2023-06-01T14:06:07;26.70;52.40
8914;DHT22;4492;48.736;9.092;2023-06-01T14:08:33;26.40;52.70
8914;DHT22;4492;48.736;9.092;2023-06-01T14:10:59;26.20;53.10
8914;DHT22;4492;48.736;9.092;2023-06-01T14:13:25;26.20;53.00
8914;DHT22;4492;48.736;9.092;2023-06-01T14:15:52;26.20;53.00
8914;DHT22;4492;48.736;9.092;2023-06-01T14:18:17;26.30;52.50
8914;DHT22;4492;48.736;9.092;2023-06-01T14:20:43;26.30;53.30
8914;DHT22;4492;48.736;9.092;2023-06-01T14:23:08;26.20;51.90
8914;DHT22;4492;48.736;9.092;2023-06-01T14:25:35;26.10;52.50
8914;DHT22;4492;48.736;9.092;2023-06-01T14:28:00;26.20;52.50
8914;DHT22;4492;48.736;9.092;2023-06-01T14:30:26;26.30;52.10
8914;DHT22;4492;48.736;9.092;2023-06-01T14:32:52;26.40;51.70
8914;DHT22;4492;48.736;9.092;2023-06-01T14:35:18;26.40;51.60
8914;DHT22;4492;48.736;9.092;2023-06-01T14:37:44;26.50;51.40
8914;DHT22;4492;48.736;9.092;2023-06-01T14:40:10;26.60;51.40
8914;DHT22;4492;48.736;9.092;2023-06-01T14:42:37;26.70;50.30
8914;DHT22;4492;48.736;9.092;2023-06-01T14:45:04;26.60;50.00
8914;DHT22;4492;48.736;9.092;2023-06-01T14:47:30;26.70;49.40
8914;DHT22;4492;48.736;9.092;2023-06-01T14:49:56;26.70;49.50
8914;DHT22;4492;48.736;9.092;2023-06-01T14:52:21;27.00;49.40
8914;DHT22;4492;48.736;9.092;2023-06-01T14:54:47;27.10;50.00
8914;DHT22;4492;48.736;9.092;2023-06-01T14:57:14;27.20;48.00
8914;DHT22;4492;48.736;9.092;2023-06-01T14:59:40;27.20;47.50
8914;DHT22;4492;48.736;9.092;2023-06-01T15:02:06;27.20;47.80
8914;DHT22;4492;48.736;9.092;2023-06-01T15:04:32;27.20;47.70
8914;DHT22;4492;48.736;9.092;2023-06-01T15:06:59;27.20;46.70
8914;DHT22;4492;48.736;9.092;2023-06-01T15:09:24;27.20;46.30
8914;DHT22;4492;48.736;9.092;2023-06-01T15:11:50;27.10;47.00
8914;DHT22;4492;48.736;9.092;2023-06-01T15:14:15;27.40;47.00
8914;DHT22;4492;48.736;9.092;2023-06-01T15:16:41;27.60;46.10
8914;DHT22;4492;48.736;9.092;2023-06-01T15:19:07;27.90;45.80
8914;DHT22;4492;48.736;9.092;2023-06-01T15:21:33;28.10;46.70
8914;DHT22;4492;48.736;9.092;2023-06-01T15:23:58;28.10;46.20
8914;DHT22;4492;48.736;9.092;2023-06-01T15:26:24;28.20;45.90
8914;DHT22;4492;48.736;9.092;2023-06-01T15:28:51;28.30;44.90
8914;DHT22;4492;48.736;9.092;2023-06-01T15:31:16;28.70;45.30
8914;DHT22;4492;48.736;9.092;2023-06-01T15:33:42;29.20;44.70
8914;DHT22;4492;48.736;9.092;2023-06-01T15:36:07;29.40;44.60
8914;DHT22;4492;48.736;9.092;2023-06-01T15:38:33;29.40;45.10
8914;DHT22;4492;48.736;9.092;2023-06-01T15:41:01;29.50;43.10
8914;DHT22;4492;48.736;9.092;2023-06-01T15:43:27;29.40;42.50
8914;DHT22;4492;48.736;9.092;2023-06-01T15:45:52;29.30;43.10
8914;DHT22;4492;48.736;9.092;2023-06-01T15:48:17;29.20;42.70
8914;DHT22;4492;48.736;9.092;2023-06-01T15:50:43;29.30;42.70
8914;DHT22;4492;48.736;9.092;2023-06-01T15:53:08;29.30;43.30
8914;DHT22;4492;48.736;9.092;2023-06-01T15:55:34;29.30;42.20
8914;DHT22;4492;48.736;9.092;2023-06-01T15:57:59;29.30;42.40
8914;DHT22;4492;48.736;9.092;2023-06-01T16:00:25;29.30;43.00
8914;DHT22;4492;48.736;9.092;2023-06-01T16:02:53;29.40;42.60
8914;DHT22;4492;48.736;9.092;2023-06-01T16:05:18;29.50;42.20
8914;DHT22;4492;48.736;9.092;2023-06-01T16:07:44;29.70;42.00
8914;DHT22;4492;48.736;9.092;2023-06-01T16:10:10;30.00;41.90
8914;DHT22;4492;48.736;9.092;2023-06-01T16:12:37;30.00;41.60
8914;DHT22;4492;48.736;9.092;2023-06-01T16:15:03;30.10;41.20
8914;DHT22;4492;48.736;9.092;2023-06-01T16:17:29;30.10;40.90
8914;DHT22;4492;48.736;9.092;2023-06-01T16:19:55;30.10;40.60
8914;DHT22;4492;48.736;9.092;2023-06-01T16:22:20;30.10;40.10
8914;DHT22;4492;48.736;9.092;2023-06-01T16:24:46;30.10;39.90
8914;DHT22;4492;48.736;9.092;2023-06-01T16:27:11;30.20;39.60
8914;DHT22;4492;48.736;9.092;2023-06-01T16:29:37;30.30;39.60
8914;DHT22;4492;48.736;9.092;2023-06-01T16:32:02;30.20;39.20
8914;DHT22;4492;48.736;9.092;2023-06-01T16:34:28;30.10;39.20
8914;DHT22;4492;48.736;9.092;2023-06-01T16:36:53;30.10;39.70
8914;DHT22;4492;48.736;9.092;2023-06-01T16:39:19;30.10;39.70
8914;DHT22;4492;48.736;9.092;2023-06-01T16:41:45;30.10;39.90
8914;DHT22;4492;48.736;9.092;2023-06-01T16:44:10;30.20;39.60
8914;DHT22;4492;48.736;9.092;2023-06-01T16:46:38;30.50;39.00
8914;DHT22;4492;48.736;9.092;2023-06-01T16:49:04;30.70;38.60